sensor_id;sensor_type;location;lat;lon;timestamp;pressure;altitude;pressure_sealevel;temperature;humidity
36386;BME280;24125;47.482;8.770;2022-10-31T00:02:18;96781.84;;;12.22;75.03
36386;BME280;24125;47.482;8.770;2022-10-31T00:04:53;96778.06;;;12.23;75.49
36386;BME280;24125;47.482;8.770;2022-10-31T00:07:26;96782.16;;;12.20;75.57
36386;BME280;24125;47.482;8.770;2022-10-31T00:09:59;96777.16;;;12.19;75.02
36386;BME280;24125;47.482;8.770;2022-10-31T00:12:33;96776.38;;;12.18;75.36
36386;BME280;24125;47.482;8.770;2022-10-31T00:15:07;96778.56;;;12.16;75.50
36386;BME280;24125;47.482;8.770;2022-10-31T00:17:40;96774.31;;;12.15;75.11
36386;BME280;24125;47.482;8.770;2022-10-31T00:20:15;96763.94;;;12.14;74.61
36386;BME280;24125;47.482;8.770;2022-10-31T00:22:47;96772.28;;;12.12;75.17
36386;BME280;24125;47.482;8.770;2022-10-31T00:25:20;96774.03;;;12.08;75.21
36386;BME280;24125;47.482;8.770;2022-10-31T00:27:54;96770.09;;;12.05;74.75
36386;BME280;24125;47.482;8.770;2022-10-31T00:30:29;96774.66;;;12.05;74.99
36386;BME280;24125;47.482;8.770;2022-10-31T00:33:03;96770.72;;;12.02;74.94
36386;BME280;24125;47.482;8.770;2022-10-31T00:35:38;96763.03;;;12.01;74.34
36386;BME280;24125;47.482;8.770;2022-10-31T00:38:10;96764.78;;;11.97;74.25
36386;BME280;24125;47.482;8.770;2022-10-31T00:40:43;96767.75;;;11.95;74.48
36386;BME280;24125;47.482;8.770;2022-10-31T00:43:16;96770.00;;;11.93;74.48
36386;BME280;24125;47.482;8.770;2022-10-31T00:45:49;96771.72;;;11.89;74.01
36386;BME280;24125;47.482;8.770;2022-10-31T00:48:22;96764.31;;;11.86;74.29
36386;BME280;24125;47.482;8.770;2022-10-31T00:50:57;96767.66;;;11.83;74.36
36386;BME280;24125;47.482;8.770;2022-10-31T00:53:30;96766.41;;;11.81;74.57
36386;BME280;24125;47.482;8.770;2022-10-31T00:56:06;96776.63;;;11.79;74.78
36386;BME280;24125;47.482;8.770;2022-10-31T00:58:39;96766.56;;;11.76;74.17
36386;BME280;24125;47.482;8.770;2022-10-31T01:01:12;96775.97;;;11.73;74.18
36386;BME280;24125;47.482;8.770;2022-10-31T01:03:45;96771.25;;;11.70;74.81
36386;BME280;24125;47.482;8.770;2022-10-31T01:06:19;96776.13;;;11.68;74.71
36386;BME280;24125;47.482;8.770;2022-10-31T01:08:52;96774.09;;;11.65;74.50
36386;BME280;24125;47.482;8.770;2022-10-31T01:11:25;96772.06;;;11.62;74.70
36386;BME280;24125;47.482;8.770;2022-10-31T01:13:58;96772.38;;;11.60;74.49
36386;BME280;24125;47.482;8.770;2022-10-31T01:16:31;96770.34;;;11.57;74.98
36386;BME280;24125;47.482;8.770;2022-10-31T01:19:04;96766.09;;;11.56;74.94
36386;BME280;24125;47.482;8.770;2022-10-31T01:21:38;96772.53;;;11.55;75.39
36386;BME280;24125;47.482;8.770;2022-10-31T01:24:11;96767.81;;;11.52;75.24
36386;BME280;24125;47.482;8.770;2022-10-31T01:26:46;96774.59;;;11.50;75.35
36386;BME280;24125;47.482;8.770;2022-10-31T01:29:19;96770.34;;;11.49;75.17
36386;BME280;24125;47.482;8.770;2022-10-31T01:31:52;96766.41;;;11.46;75.07
36386;BME280;24125;47.482;8.770;2022-10-31T01:34:26;96767.50;;;11.45;75.49
36386;BME280;24125;47.482;8.770;2022-10-31T01:37:00;96768.31;;;11.46;75.38
36386;BME280;24125;47.482;8.770;2022-10-31T01:39:33;96762.78;;;11.42;75.22
36386;BME280;24125;47.482;8.770;2022-10-31T01:42:09;96757.00;;;11.40;75.19
36386;BME280;24125;47.482;8.770;2022-10-31T01:44:51;96755.41;;;11.39;75.13
36386;BME280;24125;47.482;8.770;2022-10-31T01:47:31;96760.13;;;11.42;75.12
36386;BME280;24125;47.482;8.770;2022-10-31T01:50:11;96752.44;;;11.41;74.97
36386;BME280;24125;47.482;8.770;2022-10-31T01:52:47;96752.28;;;11.37;74.98
36386;BME280;24125;47.482;8.770;2022-10-31T01:55:26;96755.91;;;11.32;75.15
36386;BME280;24125;47.482;8.770;2022-10-31T01:58:04;96761.56;;;11.31;74.84
36386;BME280;24125;47.482;8.770;2022-10-31T02:00:43;96756.03;;;11.27;74.87
36386;BME280;24125;47.482;8.770;2022-10-31T02:03:18;96748.66;;;11.24;75.33
36386;BME280;24125;47.482;8.770;2022-10-31T02:05:54;96756.22;;;11.22;74.96
36386;BME280;24125;47.482;8.770;2022-10-31T02:08:31;96748.03;;;11.19;74.84
36386;BME280;24125;47.482;8.770;2022-10-31T02:11:06;96747.88;;;11.15;74.58
36386;BME280;24125;47.482;8.770;2022-10-31T02:13:39;96745.84;;;11.12;74.26
36386;BME280;24125;47.482;8.770;2022-10-31T02:16:13;96749.13;;;11.09;74.76
36386;BME280;24125;47.482;8.770;2022-10-31T02:18:46;96739.88;;;11.07;74.70
36386;BME280;24125;47.482;8.770;2022-10-31T02:21:24;96743.63;;;11.06;74.41
36386;BME280;24125;47.482;8.770;2022-10-31T02:24:29;96745.03;;;11.03;74.74
36386;BME280;24125;47.482;8.770;2022-10-31T02:27:11;96751.47;;;11.02;74.33
36386;BME280;24125;47.482;8.770;2022-10-31T02:36:05;96743.63;;;10.97;74.57
36386;BME280;24125;47.482;8.770;2022-10-31T02:38:51;96733.56;;;10.94;74.72
36386;BME280;24125;47.482;8.770;2022-10-31T02:41:32;96734.19;;;10.91;74.71
36386;BME280;24125;47.482;8.770;2022-10-31T02:44:13;96739.84;;;10.89;74.82
36386;BME280;24125;47.482;8.770;2022-10-31T02:46:49;96745.34;;;10.84;75.06
36386;BME280;24125;47.482;8.770;2022-10-31T02:49:28;96738.41;;;10.83;75.16
36386;BME280;24125;47.482;8.770;2022-10-31T02:52:13;96729.94;;;10.81;74.94
36386;BME280;24125;47.482;8.770;2022-10-31T02:54:47;96733.25;;;10.78;74.97
36386;BME280;24125;47.482;8.770;2022-10-31T02:57:24;96735.91;;;10.78;75.21
36386;BME280;24125;47.482;8.770;2022-10-31T03:00:01;96733.84;;;10.75;74.68
36386;BME280;24125;47.482;8.770;2022-10-31T03:02:56;96730.09;;;10.76;74.37
36386;BME280;24125;47.482;8.770;2022-10-31T03:05:45;96731.81;;;10.72;74.48
36386;BME280;24125;47.482;8.770;2022-10-31T03:08:25;96731.66;;;10.69;74.79
36386;BME280;24125;47.482;8.770;2022-10-31T03:11:03;96728.97;;;10.69;74.97
36386;BME280;24125;47.482;8.770;2022-10-31T03:13:41;96723.94;;;10.67;74.57
36386;BME280;24125;47.482;8.770;2022-10-31T03:16:21;96731.47;;;10.65;74.70
36386;BME280;24125;47.482;8.770;2022-10-31T03:18:59;96718.78;;;10.62;74.97
36386;BME280;24125;47.482;8.770;2022-10-31T03:21:36;96718.47;;;10.64;74.79
36386;BME280;24125;47.482;8.770;2022-10-31T03:24:13;96717.50;;;10.59;74.85
36386;BME280;24125;47.482;8.770;2022-10-31T03:26:53;96717.50;;;10.59;75.22
36386;BME280;24125;47.482;8.770;2022-10-31T03:29:32;96716.72;;;10.59;75.22
36386;BME280;24125;47.482;8.770;2022-10-31T03:32:08;96721.56;;;10.57;75.37
36386;BME280;24125;47.482;8.770;2022-10-31T03:34:43;96720.00;;;10.56;74.96
36386;BME280;24125;47.482;8.770;2022-10-31T03:37:20;96710.44;;;10.55;74.81
36386;BME280;24125;47.482;8.770;2022-10-31T03:39:57;96716.88;;;10.54;74.84
36386;BME280;24125;47.482;8.770;2022-10-31T03:42:33;96714.03;;;10.50;75.13
36386;BME280;24125;47.482;8.770;2022-10-31T03:45:12;96709.47;;;10.51;75.25
36386;BME280;24125;47.482;8.770;2022-10-31T03:47:46;96711.97;;;10.47;74.82
36386;BME280;24125;47.482;8.770;2022-10-31T03:50:24;96711.19;;;10.47;74.76
36386;BME280;24125;47.482;8.770;2022-10-31T03:53:05;96709.28;;;10.47;75.19
36386;BME280;24125;47.482;8.770;2022-10-31T03:55:43;96708.50;;;10.47;75.16
36386;BME280;24125;47.482;8.770;2022-10-31T03:58:24;96703.81;;;10.44;74.98
36386;BME280;24125;47.482;8.770;2022-10-31T04:01:00;96705.69;;;10.43;74.91
36386;BME280;24125;47.482;8.770;2022-10-31T04:03:36;96707.09;;;10.41;75.02
36386;BME280;24125;47.482;8.770;2022-10-31T04:06:13;96695.94;;;10.39;74.62
36386;BME280;24125;47.482;8.770;2022-10-31T04:08:52;96697.06;;;10.38;74.69
36386;BME280;24125;47.482;8.770;2022-10-31T04:11:29;96693.91;;;10.36;74.37
36386;BME280;24125;47.482;8.770;2022-10-31T04:14:04;96696.09;;;10.34;75.14
36386;BME280;24125;47.482;8.770;2022-10-31T04:16:39;96704.09;;;10.34;74.71
36386;BME280;24125;47.482;8.770;2022-10-31T04:19:14;96700.94;;;10.32;74.97
36386;BME280;24125;47.482;8.770;2022-10-31T04:21:47;96706.59;;;10.30;74.96
36386;BME280;24125;47.482;8.770;2022-10-31T04:24:22;96708.16;;;10.31;74.94
36386;BME280;24125;47.482;8.770;2022-10-31T04:26:55;96712.88;;;10.26;74.23
36386;BME280;24125;47.482;8.770;2022-10-31T04:29:28;96706.75;;;10.25;74.84
36386;BME280;24125;47.482;8.770;2022-10-31T04:32:01;96709.72;;;10.24;74.76
36386;BME280;24125;47.482;8.770;2022-10-31T04:34:34;96695.88;;;10.21;74.56
36386;BME280;24125;47.482;8.770;2022-10-31T04:37:07;96694.31;;;10.20;74.33
36386;BME280;24125;47.482;8.770;2022-10-31T04:39:41;96698.88;;;10.20;74.55
36386;BME280;24125;47.482;8.770;2022-10-31T04:42:14;96702.13;;;10.17;74.87
36386;BME280;24125;47.482;8.770;2022-10-31T04:44:47;96704.31;;;10.15;74.77
36386;BME280;24125;47.482;8.770;2022-10-31T04:47:20;96703.53;;;10.14;74.56
36386;BME280;24125;47.482;8.770;2022-10-31T04:49:53;96709.50;;;10.11;74.55
36386;BME280;24125;47.482;8.770;2022-10-31T04:52:27;96702.59;;;10.10;74.93
36386;BME280;24125;47.482;8.770;2022-10-31T04:55:02;96709.00;;;10.09;75.04
36386;BME280;24125;47.482;8.770;2022-10-31T04:57:40;96695.19;;;10.07;74.81
36386;BME280;24125;47.482;8.770;2022-10-31T05:00:15;96690.94;;;10.06;74.79
36386;BME280;24125;47.482;8.770;2022-10-31T05:02:52;96695.19;;;10.07;74.99
36386;BME280;24125;47.482;8.770;2022-10-31T05:05:27;96685.91;;;10.05;75.14
36386;BME280;24125;47.482;8.770;2022-10-31T05:08:01;96672.88;;;10.03;74.64
36386;BME280;24125;47.482;8.770;2022-10-31T05:10:36;96686.22;;;10.03;74.82
36386;BME280;24125;47.482;8.770;2022-10-31T05:13:16;96683.09;;;10.01;74.82
36386;BME280;24125;47.482;8.770;2022-10-31T05:15:49;96677.28;;;9.99;74.72
36386;BME280;24125;47.482;8.770;2022-10-31T05:18:22;96686.06;;;10.00;74.66
36386;BME280;24125;47.482;8.770;2022-10-31T05:20:55;96683.72;;;9.98;74.66
36386;BME280;24125;47.482;8.770;2022-10-31T05:23:28;96685.09;;;9.96;74.63
36386;BME280;24125;47.482;8.770;2022-10-31T05:26:03;96676.31;;;9.95;74.66
36386;BME280;24125;47.482;8.770;2022-10-31T05:28:38;96680.84;;;9.95;74.52
36386;BME280;24125;47.482;8.770;2022-10-31T05:31:11;96678.81;;;9.92;74.73
36386;BME280;24125;47.482;8.770;2022-10-31T05:33:44;96676.47;;;9.90;74.65
36386;BME280;24125;47.482;8.770;2022-10-31T05:36:18;96667.66;;;9.90;74.94
36386;BME280;24125;47.482;8.770;2022-10-31T05:38:51;96664.53;;;9.88;74.85
36386;BME280;24125;47.482;8.770;2022-10-31T05:41:27;96661.53;;;9.89;74.70
36386;BME280;24125;47.482;8.770;2022-10-31T05:44:00;96670.63;;;9.88;74.84
36386;BME280;24125;47.482;8.770;2022-10-31T05:46:33;96664.38;;;9.84;74.96
36386;BME280;24125;47.482;8.770;2022-10-31T05:49:06;96662.50;;;9.84;74.82
36386;BME280;24125;47.482;8.770;2022-10-31T05:51:39;96663.56;;;9.83;75.04
36386;BME280;24125;47.482;8.770;2022-10-31T05:54:12;96662.78;;;9.83;74.93
36386;BME280;24125;47.482;8.770;2022-10-31T05:56:48;96663.56;;;9.83;75.01
36386;BME280;24125;47.482;8.770;2022-10-31T05:59:21;96656.97;;;9.81;74.95
36386;BME280;24125;47.482;8.770;2022-10-31T06:01:54;96660.44;;;9.81;75.00
36386;BME280;24125;47.482;8.770;2022-10-31T06:04:27;96653.50;;;9.80;74.82
36386;BME280;24125;47.482;8.770;2022-10-31T06:07:00;96650.06;;;9.80;74.91
36386;BME280;24125;47.482;8.770;2022-10-31T06:09:32;96655.09;;;9.81;74.99
36386;BME280;24125;47.482;8.770;2022-10-31T06:12:07;96650.56;;;9.82;75.08
36386;BME280;24125;47.482;8.770;2022-10-31T06:14:41;96660.72;;;9.80;75.36
36386;BME280;24125;47.482;8.770;2022-10-31T06:17:14;96661.22;;;9.82;75.37
36386;BME280;24125;47.482;8.770;2022-10-31T06:19:47;96656.97;;;9.81;75.54
36386;BME280;24125;47.482;8.770;2022-10-31T06:22:25;96664.38;;;9.84;75.64
36386;BME280;24125;47.482;8.770;2022-10-31T06:24:58;96665.94;;;9.85;75.71
36386;BME280;24125;47.482;8.770;2022-10-31T06:27:33;96662.94;;;9.87;75.60
36386;BME280;24125;47.482;8.770;2022-10-31T06:30:07;96663.44;;;9.89;75.67
36386;BME280;24125;47.482;8.770;2022-10-31T06:32:40;96663.91;;;9.91;75.77
36386;BME280;24125;47.482;8.770;2022-10-31T06:35:13;96669.44;;;9.94;75.77
36386;BME280;24125;47.482;8.770;2022-10-31T06:37:51;96667.22;;;9.96;76.15
36386;BME280;24125;47.482;8.770;2022-10-31T06:40:26;96664.72;;;10.00;76.32
36386;BME280;24125;47.482;8.770;2022-10-31T06:43:01;96663.50;;;10.06;76.29
36386;BME280;24125;47.482;8.770;2022-10-31T06:45:34;96657.53;;;10.09;76.51
36386;BME280;24125;47.482;8.770;2022-10-31T06:48:07;96658.97;;;10.15;76.41
36386;BME280;24125;47.482;8.770;2022-10-31T06:50:49;96661.19;;;10.21;76.37
36386;BME280;24125;47.482;8.770;2022-10-31T06:53:28;96668.44;;;10.30;76.72
36386;BME280;24125;47.482;8.770;2022-10-31T06:56:01;96662.66;;;10.36;76.61
36386;BME280;24125;47.482;8.770;2022-10-31T06:58:37;96654.19;;;10.43;76.89
36386;BME280;24125;47.482;8.770;2022-10-31T07:01:11;96660.94;;;10.49;76.69
36386;BME280;24125;47.482;8.770;2022-10-31T07:03:45;96662.03;;;10.56;76.66
36386;BME280;24125;47.482;8.770;2022-10-31T07:06:22;96668.19;;;10.66;77.24
36386;BME280;24125;47.482;8.770;2022-10-31T07:08:58;96673.53;;;10.74;77.30
36386;BME280;24125;47.482;8.770;2022-10-31T07:11:31;96676.97;;;10.83;76.99
36386;BME280;24125;47.482;8.770;2022-10-31T07:14:08;96671.34;;;10.93;76.49
36386;BME280;24125;47.482;8.770;2022-10-31T07:16:42;96667.09;;;11.01;76.73
36386;BME280;24125;47.482;8.770;2022-10-31T07:19:16;96667.88;;;11.10;77.17
36386;BME280;24125;47.482;8.770;2022-10-31T07:21:57;96678.53;;;11.19;76.59
36386;BME280;24125;47.482;8.770;2022-10-31T07:24:30;96681.19;;;11.27;77.11
36386;BME280;24125;47.482;8.770;2022-10-31T07:27:04;96679.63;;;11.35;76.62
36386;BME280;24125;47.482;8.770;2022-10-31T07:29:41;96679.91;;;11.42;77.26
36386;BME280;24125;47.482;8.770;2022-10-31T07:32:14;96687.13;;;11.50;76.89
36386;BME280;24125;47.482;8.770;2022-10-31T07:34:48;96690.56;;;11.59;77.02
36386;BME280;24125;47.482;8.770;2022-10-31T07:37:27;96688.03;;;11.71;77.05
36386;BME280;24125;47.482;8.770;2022-10-31T07:40:00;96682.53;;;11.77;77.41
36386;BME280;24125;47.482;8.770;2022-10-31T07:42:37;96686.44;;;11.88;77.11
36386;BME280;24125;47.482;8.770;2022-10-31T07:45:13;96684.19;;;11.98;77.00
36386;BME280;24125;47.482;8.770;2022-10-31T07:47:48;96687.63;;;12.07;77.00
36386;BME280;24125;47.482;8.770;2022-10-31T07:50:23;96682.69;;;12.18;76.95
36386;BME280;24125;47.482;8.770;2022-10-31T07:52:59;96674.72;;;12.30;77.06
36386;BME280;24125;47.482;8.770;2022-10-31T07:55:34;96675.78;;;12.38;76.97
36386;BME280;24125;47.482;8.770;2022-10-31T07:58:10;96674.31;;;12.49;77.00
36386;BME280;24125;47.482;8.770;2022-10-31T08:00:47;96675.50;;;12.60;76.58
36386;BME280;24125;47.482;8.770;2022-10-31T08:03:23;96680.47;;;12.70;77.41
36386;BME280;24125;47.482;8.770;2022-10-31T08:05:56;96684.00;;;12.83;77.40
36386;BME280;24125;47.482;8.770;2022-10-31T08:08:29;96683.28;;;12.95;76.63
36386;BME280;24125;47.482;8.770;2022-10-31T08:11:08;96679.88;;;13.06;77.30
36386;BME280;24125;47.482;8.770;2022-10-31T08:13:42;96681.53;;;13.19;76.15
36386;BME280;24125;47.482;8.770;2022-10-31T08:16:19;96682.34;;;13.32;76.58
36386;BME280;24125;47.482;8.770;2022-10-31T08:18:52;96693.13;;;13.44;76.87
36386;BME280;24125;47.482;8.770;2022-10-31T08:21:27;96691.28;;;13.57;76.28
36386;BME280;24125;47.482;8.770;2022-10-31T08:24:00;96696.97;;;13.68;76.41
36386;BME280;24125;47.482;8.770;2022-10-31T08:26:33;96677.44;;;13.79;76.17
36386;BME280;24125;47.482;8.770;2022-10-31T08:29:06;96675.22;;;13.93;75.92
36386;BME280;24125;47.482;8.770;2022-10-31T08:31:41;96679.03;;;14.05;75.66
36386;BME280;24125;47.482;8.770;2022-10-31T08:34:15;96674.00;;;14.15;75.60
36386;BME280;24125;47.482;8.770;2022-10-31T08:36:49;96666.31;;;14.26;75.33
36386;BME280;24125;47.482;8.770;2022-10-31T08:39:22;96663.13;;;14.36;75.40
36386;BME280;24125;47.482;8.770;2022-10-31T08:41:55;96663.50;;;14.47;75.13
36386;BME280;24125;47.482;8.770;2022-10-31T08:44:29;96672.66;;;14.58;75.14
36386;BME280;24125;47.482;8.770;2022-10-31T08:47:04;96667.63;;;14.68;74.85
36386;BME280;24125;47.482;8.770;2022-10-31T08:49:37;96670.97;;;14.78;74.93
36386;BME280;24125;47.482;8.770;2022-10-31T08:52:10;96665.09;;;14.88;74.92
36386;BME280;24125;47.482;8.770;2022-10-31T08:54:45;96669.66;;;14.99;74.92
36386;BME280;24125;47.482;8.770;2022-10-31T08:57:20;96672.19;;;15.08;74.53
36386;BME280;24125;47.482;8.770;2022-10-31T08:59:53;96673.63;;;15.18;74.47
36386;BME280;24125;47.482;8.770;2022-10-31T09:02:30;96670.00;;;15.26;73.73
36386;BME280;24125;47.482;8.770;2022-10-31T09:05:05;96657.53;;;15.33;74.09
36386;BME280;24125;47.482;8.770;2022-10-31T09:07:38;96662.69;;;15.38;73.52
36386;BME280;24125;47.482;8.770;2022-10-31T09:10:16;96658.25;;;15.46;74.19
36386;BME280;24125;47.482;8.770;2022-10-31T09:12:55;96649.28;;;15.54;73.86
36386;BME280;24125;47.482;8.770;2022-10-31T09:15:34;96654.38;;;15.59;74.28
36386;BME280;24125;47.482;8.770;2022-10-31T09:18:10;96662.31;;;15.68;74.18
36386;BME280;24125;47.482;8.770;2022-10-31T09:20:47;96665.94;;;15.75;74.31
36386;BME280;24125;47.482;8.770;2022-10-31T09:23:21;96662.75;;;15.85;74.55
36386;BME280;24125;47.482;8.770;2022-10-31T09:25:59;96669.53;;;15.95;74.47
36386;BME280;24125;47.482;8.770;2022-10-31T09:28:33;96670.16;;;16.04;74.10
36386;BME280;24125;47.482;8.770;2022-10-31T09:31:07;96653.47;;;16.14;74.21
36386;BME280;24125;47.482;8.770;2022-10-31T09:33:46;96653.72;;;16.25;74.28
36386;BME280;24125;47.482;8.770;2022-10-31T09:36:22;96652.38;;;16.35;74.24
36386;BME280;24125;47.482;8.770;2022-10-31T09:38:55;96654.53;;;16.45;74.39
36386;BME280;24125;47.482;8.770;2022-10-31T09:41:37;96651.28;;;16.55;73.84
36386;BME280;24125;47.482;8.770;2022-10-31T09:44:33;96649.22;;;16.64;73.20
36386;BME280;24125;47.482;8.770;2022-10-31T09:47:35;96638.66;;;16.75;73.46
36386;BME280;24125;47.482;8.770;2022-10-31T09:50:17;96634.63;;;16.84;73.14
36386;BME280;24125;47.482;8.770;2022-10-31T09:52:56;96632.06;;;16.91;73.34
36386;BME280;24125;47.482;8.770;2022-10-31T09:55:40;96639.97;;;17.00;73.29
36386;BME280;24125;47.482;8.770;2022-10-31T09:58:18;96623.13;;;17.07;73.07
36386;BME280;24125;47.482;8.770;2022-10-31T10:00:54;96620.22;;;17.15;72.81
36386;BME280;24125;47.482;8.770;2022-10-31T10:03:35;96629.56;;;17.21;72.74
36386;BME280;24125;47.482;8.770;2022-10-31T10:06:13;96626.25;;;17.28;72.83
36386;BME280;24125;47.482;8.770;2022-10-31T10:08:48;96627.50;;;17.34;73.09
36386;BME280;24125;47.482;8.770;2022-10-31T10:11:35;96624.56;;;17.43;72.10
36386;BME280;24125;47.482;8.770;2022-10-31T10:14:19;96618.88;;;17.48;73.85
36386;BME280;24125;47.482;8.770;2022-10-31T10:17:11;96616.78;;;17.60;73.20
36386;BME280;24125;47.482;8.770;2022-10-31T10:20:00;96611.97;;;17.69;72.92
36386;BME280;24125;47.482;8.770;2022-10-31T10:25:34;96605.31;;;17.86;72.71
36386;BME280;24125;47.482;8.770;2022-10-31T10:28:25;96595.81;;;17.96;72.65
36386;BME280;24125;47.482;8.770;2022-10-31T10:31:04;96590.94;;;18.05;72.70
36386;BME280;24125;47.482;8.770;2022-10-31T10:33:42;96591.09;;;18.16;72.72
36386;BME280;24125;47.482;8.770;2022-10-31T10:36:21;96595.47;;;18.24;72.94
36386;BME280;24125;47.482;8.770;2022-10-31T10:39:00;96589.41;;;18.34;73.00
36386;BME280;24125;47.482;8.770;2022-10-31T10:41:43;96603.06;;;18.44;72.14
36386;BME280;24125;47.482;8.770;2022-10-31T10:44:16;96600.47;;;18.52;73.18
36386;BME280;24125;47.482;8.770;2022-10-31T10:46:55;96601.00;;;18.61;72.07
36386;BME280;24125;47.482;8.770;2022-10-31T10:49:50;96596.09;;;18.70;72.32
36386;BME280;24125;47.482;8.770;2022-10-31T10:52:29;96590.78;;;18.77;71.87
36386;BME280;24125;47.482;8.770;2022-10-31T10:55:24;96598.63;;;18.85;71.20
36386;BME280;24125;47.482;8.770;2022-10-31T10:58:05;96595.97;;;18.89;71.24
36386;BME280;24125;47.482;8.770;2022-10-31T11:00:40;96594.09;;;18.93;71.27
36386;BME280;24125;47.482;8.770;2022-10-31T11:03:14;96589.84;;;18.96;71.18
36386;BME280;24125;47.482;8.770;2022-10-31T11:05:50;96590.69;;;19.00;71.18
36386;BME280;24125;47.482;8.770;2022-10-31T11:08:24;96581.41;;;19.01;71.26
36386;BME280;24125;47.482;8.770;2022-10-31T11:11:02;96573.75;;;19.06;71.27
36386;BME280;24125;47.482;8.770;2022-10-31T11:13:36;96575.72;;;19.09;71.61
36386;BME280;24125;47.482;8.770;2022-10-31T11:16:11;96572.66;;;19.14;71.37
36386;BME280;24125;47.482;8.770;2022-10-31T11:18:46;96575.06;;;19.19;71.18
36386;BME280;24125;47.482;8.770;2022-10-31T11:21:21;96570.44;;;19.23;71.21
36386;BME280;24125;47.482;8.770;2022-10-31T11:24:02;96574.00;;;19.31;71.05
36386;BME280;24125;47.482;8.770;2022-10-31T11:26:38;96582.56;;;19.37;71.15
36386;BME280;24125;47.482;8.770;2022-10-31T11:29:14;96578.75;;;19.41;70.76
36386;BME280;24125;47.482;8.770;2022-10-31T11:31:51;96583.47;;;19.48;70.88
36386;BME280;24125;47.482;8.770;2022-10-31T11:34:29;96568.81;;;19.52;70.59
36386;BME280;24125;47.482;8.770;2022-10-31T11:37:11;96567.31;;;19.58;70.32
36386;BME280;24125;47.482;8.770;2022-10-31T11:39:49;96561.16;;;19.62;70.44
36386;BME280;24125;47.482;8.770;2022-10-31T11:42:28;96559.25;;;19.66;70.71
36386;BME280;24125;47.482;8.770;2022-10-31T11:45:07;96557.00;;;19.71;70.68
36386;BME280;24125;47.482;8.770;2022-10-31T11:47:47;96548.09;;;19.74;70.29
36386;BME280;24125;47.482;8.770;2022-10-31T11:50:34;96546.22;;;19.78;70.54
36386;BME280;24125;47.482;8.770;2022-10-31T11:53:13;96542.38;;;19.83;70.50
36386;BME280;24125;47.482;8.770;2022-10-31T11:55:48;96545.53;;;19.88;70.79
36386;BME280;24125;47.482;8.770;2022-10-31T11:58:34;96550.22;;;19.95;71.24
36386;BME280;24125;47.482;8.770;2022-10-31T12:01:22;96556.84;;;20.05;70.99
36386;BME280;24125;47.482;8.770;2022-10-31T12:04:04;96547.63;;;20.13;70.60
36386;BME280;24125;47.482;8.770;2022-10-31T12:06:40;96530.25;;;20.21;70.88
36386;BME280;24125;47.482;8.770;2022-10-31T12:09:19;96516.34;;;20.29;70.33
36386;BME280;24125;47.482;8.770;2022-10-31T12:12:03;96522.97;;;20.36;69.56
36386;BME280;24125;47.482;8.770;2022-10-31T12:14:53;96519.53;;;20.42;69.47
36386;BME280;24125;47.482;8.770;2022-10-31T12:17:31;96512.94;;;20.43;68.93
36386;BME280;24125;47.482;8.770;2022-10-31T12:20:18;96502.50;;;20.45;69.18
36386;BME280;24125;47.482;8.770;2022-10-31T12:23:00;96504.84;;;20.47;68.89
36386;BME280;24125;47.482;8.770;2022-10-31T12:25:40;96499.78;;;20.45;69.10
36386;BME280;24125;47.482;8.770;2022-10-31T12:31:39;96479.66;;;20.46;69.30
36386;BME280;24125;47.482;8.770;2022-10-31T12:37:50;96483.91;;;20.47;68.90
36386;BME280;24125;47.482;8.770;2022-10-31T12:40:40;96474.22;;;20.46;68.61
36386;BME280;24125;47.482;8.770;2022-10-31T12:43:27;96476.53;;;20.44;68.78
36386;BME280;24125;47.482;8.770;2022-10-31T12:46:02;96469.16;;;20.38;68.85
36386;BME280;24125;47.482;8.770;2022-10-31T12:49:04;96458.28;;;20.34;68.62
36386;BME280;24125;47.482;8.770;2022-10-31T12:51:49;96453.97;;;20.26;68.45
36386;BME280;24125;47.482;8.770;2022-10-31T12:54:39;96450.47;;;20.22;68.26
36386;BME280;24125;47.482;8.770;2022-10-31T12:57:28;96439.97;;;20.13;68.50
36386;BME280;24125;47.482;8.770;2022-10-31T13:00:09;96432.19;;;20.05;68.82
36386;BME280;24125;47.482;8.770;2022-10-31T13:02:48;96427.50;;;19.98;69.12
36386;BME280;24125;47.482;8.770;2022-10-31T13:05:29;96415.84;;;19.90;69.03
36386;BME280;24125;47.482;8.770;2022-10-31T13:08:06;96410.78;;;19.82;69.70
36386;BME280;24125;47.482;8.770;2022-10-31T13:10:45;96405.72;;;19.77;69.62
36386;BME280;24125;47.482;8.770;2022-10-31T13:13:23;96404.91;;;19.69;69.80
36386;BME280;24125;47.482;8.770;2022-10-31T13:16:02;96395.97;;;19.65;70.51
36386;BME280;24125;47.482;8.770;2022-10-31T13:18:40;96384.72;;;19.59;70.81
36386;BME280;24125;47.482;8.770;2022-10-31T13:21:21;96385.47;;;19.56;70.13
36386;BME280;24125;47.482;8.770;2022-10-31T13:23:57;96379.28;;;19.52;70.79
36386;BME280;24125;47.482;8.770;2022-10-31T13:26:36;96380.78;;;19.50;70.33
36386;BME280;24125;47.482;8.770;2022-10-31T13:29:17;96376.09;;;19.47;70.16
36386;BME280;24125;47.482;8.770;2022-10-31T13:31:51;96376.47;;;19.42;70.80
36386;BME280;24125;47.482;8.770;2022-10-31T13:34:28;96375.69;;;19.41;70.63
36386;BME280;24125;47.482;8.770;2022-10-31T13:37:11;96369.88;;;19.39;70.60
36386;BME280;24125;47.482;8.770;2022-10-31T13:40:06;96372.16;;;19.37;71.15
36386;BME280;24125;47.482;8.770;2022-10-31T13:42:59;96367.53;;;19.38;71.46
36386;BME280;24125;47.482;8.770;2022-10-31T13:45:35;96359.03;;;19.36;71.93
36386;BME280;24125;47.482;8.770;2022-10-31T13:48:19;96364.44;;;19.39;71.62
36386;BME280;24125;47.482;8.770;2022-10-31T13:50:57;96357.47;;;19.38;71.67
36386;BME280;24125;47.482;8.770;2022-10-31T13:53:43;96350.91;;;19.39;71.15
36386;BME280;24125;47.482;8.770;2022-10-31T13:56:21;96356.31;;;19.39;71.66
36386;BME280;24125;47.482;8.770;2022-10-31T13:59:11;96352.84;;;19.39;71.91
36386;BME280;24125;47.482;8.770;2022-10-31T14:01:53;96351.69;;;19.40;71.96
36386;BME280;24125;47.482;8.770;2022-10-31T14:04:31;96347.44;;;19.39;71.79
36386;BME280;24125;47.482;8.770;2022-10-31T14:07:10;96344.72;;;19.39;72.22
36386;BME280;24125;47.482;8.770;2022-10-31T14:09:53;96342.41;;;19.41;71.78
36386;BME280;24125;47.482;8.770;2022-10-31T14:12:31;96335.06;;;19.41;71.96